Bosporus — V2QY — position and weather

sailwx.info

Track history (hours):
 
Tides and Currents Weather Stations Pressure Air Temp Water Temp Dewpoint Dewpoint Depression Visibility Wind Speed Wind Dir Waves Ship Positions

Bosporus

Last reported at 2017-Aug-19 04:13 UTC. Time now 2017-Aug-20 21:10 UTC.
Position N 40°28' E 001°08'.

Length 100 m; draft 5.7 m.

Type: Cargo ship. MMSI: 304010802.

Date/timePositionNaut miles runAvg speedWind from/ knotsBaromVisibWave heightAir tempDewpointWater temp
2017-Aug-19 04:13N 40°28' E 001°08'510.9
2017-Aug-19 03:47N 40°31' E 001°12'310.9
2017-Aug-19 03:29N 40°34' E 001°15'510.9
2017-Aug-19 03:00N 40°37' E 001°21'710.8
2017-Aug-19 02:22N 40°41' E 001°28'410.7
2017-Aug-19 01:59N 40°44' E 001°32'610.7
2017-Aug-19 01:26N 40°48' E 001°38'2310.6
2017-Aug-18 23:16N 41°02' E 002°01'310.5
2017-Aug-18 23:00N 41°04' E 002°04'510.5
2017-Aug-18 22:30N 41°08' E 002°09'510.3
2017-Aug-18 22:00N 41°11' E 002°15'510.3
2017-Aug-18 21:30N 41°14' E 002°20'510.3
2017-Aug-18 21:00N 41°18' E 002°25'510.1
2017-Aug-18 20:30N 41°21' E 002°30'5 9.8
2017-Aug-18 19:57N 41°24' E 002°35'4 9.5
2017-Aug-18 19:30N 41°27' E 002°40'6 9.5
2017-Aug-18 18:54N 41°31' E 002°46'4 9.1
2017-Aug-18 18:30N 41°33' E 002°49'5 9.0
2017-Aug-18 18:00N 41°36' E 002°54'10 8.8
2017-Aug-18 16:54N 41°42' E 003°04'4 9.2
2017-Aug-18 16:28N 41°45' E 003°08'4 8.9
2017-Aug-18 16:00N 41°48' E 003°12'34 8.8
2017-Aug-18 12:12N 42°13' E 003°42'2 9.2
2017-Aug-18 11:57N 42°14' E 003°44'4 9.3
2017-Aug-18 11:29N 42°18' E 003°48'5 9.3
2017-Aug-18 10:54N 42°22' E 003°52'23 9.4
2017-Aug-18 08:28N 42°40' E 004°12'5 8.6
2017-Aug-18 07:51N 42°44' E 004°17'3 8.8
2017-Aug-18 07:28N 42°46' E 004°20'4 8.9
2017-Aug-18 07:00N 42°49' E 004°24'5 9.4
2017-Aug-18 06:30N 42°53' E 004°28'510.4
2017-Aug-18 06:00N 42°57' E 004°32'510.4
2017-Aug-18 05:30N 43°01' E 004°37'510.4
2017-Aug-18 05:00N 43°05' E 004°42'510.3
2017-Aug-18 04:30N 43°09' E 004°46'510.0
2017-Aug-18 04:00N 43°12' E 004°51'510.1
2017-Aug-18 03:30N 43°16' E 004°55'6 9.1
2017-Aug-18 02:51N 43°22' E 004°57'5 0.7
2017-Aug-17 20:17N 43°26' E 004°54'0 0.0
2017-Aug-17 19:59N 43°26' E 004°54'0 0.0
2017-Aug-17 19:17N 43°26' E 004°54'0 0.0
2017-Aug-17 18:56N 43°26' E 004°54'0 0.0
2017-Aug-17 18:26N 43°26' E 004°54'0 0.0
2017-Aug-17 16:05N 43°26' E 004°54'0 0.0
2017-Aug-17 15:53N 43°26' E 004°54'0 0.0
2017-Aug-17 15:29N 43°26' E 004°54'0 0.0
2017-Aug-17 12:50N 43°26' E 004°54'0 0.0
2017-Aug-17 12:29N 43°26' E 004°54'0 0.0
2017-Aug-17 11:56N 43°26' E 004°54'0 0.0
2017-Aug-17 11:26N 43°26' E 004°54'0 0.0
2017-Aug-17 10:32N 43°26' E 004°54'0 0.1
2017-Aug-17 10:29N 43°26' E 004°54'0 0.0
2017-Aug-17 09:59N 43°26' E 004°54'0 0.0
2017-Aug-17 09:26N 43°26' E 004°54'0 0.0
2017-Aug-17 08:56N 43°26' E 004°54'0 0.0
2017-Aug-17 08:29N 43°26' E 004°54'0 0.0
2017-Aug-17 07:56N 43°26' E 004°54'0 0.0
2017-Aug-17 07:30N 43°26' E 004°54'3 5.5
2017-Aug-17 07:00N 43°23' E 004°55'5 9.9
2017-Aug-17 06:31N 43°19' E 004°59'510.9
2017-Aug-17 06:00N 43°14' E 005°02'4 8.2
2017-Aug-17 05:31N 43°10' E 005°00'5 9.1
2017-Aug-17 05:00N 43°07' E 004°56'5 9.3
2017-Aug-17 04:31N 43°03' E 004°51'5 9.1
2017-Aug-17 04:00N 43°00' E 004°47'5 9.4
2017-Aug-17 03:30N 42°57' E 004°43'5 9.4
2017-Aug-17 03:00N 42°53' E 004°38'5 9.4
2017-Aug-17 02:31N 42°50' E 004°34'5 9.5
2017-Aug-17 02:01N 42°46' E 004°29'5 9.3
2017-Aug-17 01:31N 42°43' E 004°25'5 9.1
2017-Aug-17 00:59N 42°40' E 004°21'42 9.4
2017-Aug-16 20:36N 42°10' E 003°42'1 8.7
2017-Aug-16 20:30N 42°09' E 003°41'4 8.0
2017-Aug-16 20:00N 42°07' E 003°37'6 9.9
2017-Aug-16 19:22N 42°02' E 003°31'4 9.7
2017-Aug-16 18:57N 41°59' E 003°27'510.0
2017-Aug-16 18:29N 41°56' E 003°23'810.9
2017-Aug-16 17:48N 41°50' E 003°16'7611.1
2017-Aug-16 10:57N 41°09' E 001°51'510.7
2017-Aug-16 10:30N 41°08' E 001°44'  
2017-Aug-11 21:14N 43°12' E 004°27'2 8.7
2017-Aug-11 20:58N 43°12' E 004°31'4 8.9
2017-Aug-11 20:30N 43°13' E 004°36'5 9.2
2017-Aug-11 20:00N 43°15' E 004°42'5 9.6
2017-Aug-11 19:30N 43°16' E 004°48'5 9.6
2017-Aug-11 19:00N 43°18' E 004°55'4 8.4
2017-Aug-11 18:28N 43°21' E 004°58'4 9.4
2017-Aug-11 18:00N 43°24' E 004°53'1 1.2
2017-Aug-11 16:55N 43°26' E 004°53'0 0.0
2017-Aug-11 11:01N 43°26' E 004°53'0 0.1
2017-Aug-11 10:55N 43°26' E 004°53'0 0.0
2017-Aug-11 09:01N 43°26' E 004°53'0 0.0
2017-Aug-11 08:16N 43°26' E 004°53'0 0.0
2017-Aug-11 07:49N 43°26' E 004°53'0 0.0
2017-Aug-11 06:37N 43°26' E 004°53'0 0.0
2017-Aug-11 06:22N 43°26' E 004°53'  
Track history (hours):
 
Tides and Currents Weather Stations Pressure Air Temp Water Temp Dewpoint Dewpoint Depression Visibility Wind Speed Wind Dir Waves Ship Positions

Bosporus

Last reported at 2017-Aug-19 04:13 UTC. Time now 2017-Aug-20 21:10 UTC.
Position N 40°28' E 001°08'.

Length 100 m; draft 5.7 m.

Type: Cargo ship. MMSI: 304010802.

Date/timePositionNaut miles runAvg speedWind from/ knotsBaromVisibWave heightAir tempDewpointWater temp
2017-Aug-19 04:13N 40°28' E 001°08'510.9
2017-Aug-19 03:47N 40°31' E 001°12'310.9
2017-Aug-19 03:29N 40°34' E 001°15'510.9
2017-Aug-19 03:00N 40°37' E 001°21'710.8
2017-Aug-19 02:22N 40°41' E 001°28'410.7
2017-Aug-19 01:59N 40°44' E 001°32'610.7
2017-Aug-19 01:26N 40°48' E 001°38'2310.6
2017-Aug-18 23:16N 41°02' E 002°01'310.5
2017-Aug-18 23:00N 41°04' E 002°04'510.5
2017-Aug-18 22:30N 41°08' E 002°09'510.3
2017-Aug-18 22:00N 41°11' E 002°15'510.3
2017-Aug-18 21:30N 41°14' E 002°20'510.3
2017-Aug-18 21:00N 41°18' E 002°25'510.1
2017-Aug-18 20:30N 41°21' E 002°30'5 9.8
2017-Aug-18 19:57N 41°24' E 002°35'4 9.5
2017-Aug-18 19:30N 41°27' E 002°40'6 9.5
2017-Aug-18 18:54N 41°31' E 002°46'4 9.1
2017-Aug-18 18:30N 41°33' E 002°49'5 9.0
2017-Aug-18 18:00N 41°36' E 002°54'10 8.8
2017-Aug-18 16:54N 41°42' E 003°04'4 9.2
2017-Aug-18 16:28N 41°45' E 003°08'4 8.9
2017-Aug-18 16:00N 41°48' E 003°12'34 8.8
2017-Aug-18 12:12N 42°13' E 003°42'2 9.2
2017-Aug-18 11:57N 42°14' E 003°44'4 9.3
2017-Aug-18 11:29N 42°18' E 003°48'5 9.3
2017-Aug-18 10:54N 42°22' E 003°52'23 9.4
2017-Aug-18 08:28N 42°40' E 004°12'5 8.6
2017-Aug-18 07:51N 42°44' E 004°17'3 8.8
2017-Aug-18 07:28N 42°46' E 004°20'4 8.9
2017-Aug-18 07:00N 42°49' E 004°24'5 9.4
2017-Aug-18 06:30N 42°53' E 004°28'510.4
2017-Aug-18 06:00N 42°57' E 004°32'510.4
2017-Aug-18 05:30N 43°01' E 004°37'510.4
2017-Aug-18 05:00N 43°05' E 004°42'510.3
2017-Aug-18 04:30N 43°09' E 004°46'510.0
2017-Aug-18 04:00N 43°12' E 004°51'510.1
2017-Aug-18 03:30N 43°16' E 004°55'6 9.1
2017-Aug-18 02:51N 43°22' E 004°57'5 0.7
2017-Aug-17 20:17N 43°26' E 004°54'0 0.0
2017-Aug-17 19:59N 43°26' E 004°54'0 0.0
2017-Aug-17 19:17N 43°26' E 004°54'0 0.0
2017-Aug-17 18:56N 43°26' E 004°54'0 0.0
2017-Aug-17 18:26N 43°26' E 004°54'0 0.0
2017-Aug-17 16:05N 43°26' E 004°54'0 0.0
2017-Aug-17 15:53N 43°26' E 004°54'0 0.0
2017-Aug-17 15:29N 43°26' E 004°54'0 0.0
2017-Aug-17 12:50N 43°26' E 004°54'0 0.0
2017-Aug-17 12:29N 43°26' E 004°54'0 0.0
2017-Aug-17 11:56N 43°26' E 004°54'0 0.0
2017-Aug-17 11:26N 43°26' E 004°54'0 0.0
2017-Aug-17 10:32N 43°26' E 004°54'0 0.1
2017-Aug-17 10:29N 43°26' E 004°54'0 0.0
2017-Aug-17 09:59N 43°26' E 004°54'0 0.0
2017-Aug-17 09:26N 43°26' E 004°54'0 0.0
2017-Aug-17 08:56N 43°26' E 004°54'0 0.0
2017-Aug-17 08:29N 43°26' E 004°54'0 0.0
2017-Aug-17 07:56N 43°26' E 004°54'0 0.0
2017-Aug-17 07:30N 43°26' E 004°54'3 5.5
2017-Aug-17 07:00N 43°23' E 004°55'5 9.9
2017-Aug-17 06:31N 43°19' E 004°59'510.9
2017-Aug-17 06:00N 43°14' E 005°02'4 8.2
2017-Aug-17 05:31N 43°10' E 005°00'5 9.1
2017-Aug-17 05:00N 43°07' E 004°56'5 9.3
2017-Aug-17 04:31N 43°03' E 004°51'5 9.1
2017-Aug-17 04:00N 43°00' E 004°47'5 9.4
2017-Aug-17 03:30N 42°57' E 004°43'5 9.4
2017-Aug-17 03:00N 42°53' E 004°38'5 9.4
2017-Aug-17 02:31N 42°50' E 004°34'5 9.5
2017-Aug-17 02:01N 42°46' E 004°29'5 9.3
2017-Aug-17 01:31N 42°43' E 004°25'5 9.1
2017-Aug-17 00:59N 42°40' E 004°21'42 9.4
2017-Aug-16 20:36N 42°10' E 003°42'1 8.7
2017-Aug-16 20:30N 42°09' E 003°41'4 8.0
2017-Aug-16 20:00N 42°07' E 003°37'6 9.9
2017-Aug-16 19:22N 42°02' E 003°31'4 9.7
2017-Aug-16 18:57N 41°59' E 003°27'510.0
2017-Aug-16 18:29N 41°56' E 003°23'810.9
2017-Aug-16 17:48N 41°50' E 003°16'7611.1
2017-Aug-16 10:57N 41°09' E 001°51'510.7
2017-Aug-16 10:30N 41°08' E 001°44'  
2017-Aug-11 21:14N 43°12' E 004°27'2 8.7
2017-Aug-11 20:58N 43°12' E 004°31'4 8.9
2017-Aug-11 20:30N 43°13' E 004°36'5 9.2
2017-Aug-11 20:00N 43°15' E 004°42'5 9.6
2017-Aug-11 19:30N 43°16' E 004°48'5 9.6
2017-Aug-11 19:00N 43°18' E 004°55'4 8.4
2017-Aug-11 18:28N 43°21' E 004°58'4 9.4
2017-Aug-11 18:00N 43°24' E 004°53'1 1.2
2017-Aug-11 16:55N 43°26' E 004°53'0 0.0
2017-Aug-11 11:01N 43°26' E 004°53'0 0.1
2017-Aug-11 10:55N 43°26' E 004°53'0 0.0
2017-Aug-11 09:01N 43°26' E 004°53'0 0.0
2017-Aug-11 08:16N 43°26' E 004°53'0 0.0
2017-Aug-11 07:49N 43°26' E 004°53'0 0.0
2017-Aug-11 06:37N 43°26' E 004°53'0 0.0
2017-Aug-11 06:22N 43°26' E 004°53'  

Dump ship's entire track history